createdAt,value
2019-04-26T00:01:32.910Z,9.00
2019-04-26T00:04:02.195Z,9.00
2019-04-26T00:06:32.080Z,9.00
2019-04-26T00:09:22.326Z,9.00
2019-04-26T00:12:05.953Z,9.00
2019-04-26T00:14:49.044Z,9.00
2019-04-26T00:17:27.077Z,9.00
2019-04-26T00:19:56.914Z,9.00
2019-04-26T00:22:26.513Z,9.00
2019-04-26T00:24:56.078Z,9.00
2019-04-26T00:27:26.951Z,9.00
2019-04-26T00:29:58.878Z,9.00
2019-04-26T00:32:29.224Z,9.10
2019-04-26T00:35:02.115Z,9.00
2019-04-26T00:37:31.898Z,9.00
2019-04-26T00:40:00.975Z,9.00
2019-04-26T00:42:31.065Z,9.00
2019-04-26T00:45:00.252Z,9.00
2019-04-26T00:47:29.839Z,9.00
2019-04-26T00:49:59.397Z,9.00
2019-04-26T00:52:30.482Z,9.00
2019-04-26T00:55:02.757Z,9.00
2019-04-26T00:57:33.270Z,9.00
2019-04-26T01:00:03.880Z,8.90
2019-04-26T01:02:41.901Z,8.90
2019-04-26T01:05:17.048Z,8.90
2019-04-26T01:07:49.060Z,8.90
2019-04-26T01:10:20.134Z,8.90
2019-04-26T01:12:49.862Z,8.80
2019-04-26T01:15:20.437Z,8.90
2019-04-26T01:17:51.928Z,8.90
2019-04-26T01:20:25.256Z,8.80
2019-04-26T01:23:02.749Z,8.90
2019-04-26T01:25:44.379Z,8.90
2019-04-26T01:28:21.753Z,8.80
2019-04-26T01:30:52.150Z,8.80
2019-04-26T01:33:24.077Z,8.80
2019-04-26T01:35:54.143Z,8.70
2019-04-26T01:38:24.082Z,8.70
2019-04-26T01:40:55.811Z,8.60
2019-04-26T01:43:49.149Z,8.60
2019-04-26T01:46:25.265Z,8.50
2019-04-26T01:49:04.339Z,8.50
2019-04-26T01:51:53.831Z,8.60
2019-04-26T01:54:26.479Z,8.60
2019-04-26T01:56:59.498Z,8.50
2019-04-26T01:59:29.468Z,8.50
2019-04-26T02:02:06.821Z,8.40
2019-04-26T02:04:38.182Z,8.40
2019-04-26T02:07:07.545Z,8.30
2019-04-26T02:09:37.601Z,8.30
2019-04-26T02:12:07.301Z,8.20
2019-04-26T02:14:38.003Z,8.10
2019-04-26T02:17:08.614Z,8.10
2019-04-26T02:19:37.909Z,8.10
2019-04-26T02:22:24.353Z,8.10
2019-04-26T02:24:54.694Z,8.10
2019-04-26T02:27:30.851Z,8.10
2019-04-26T02:30:00.903Z,8.10
2019-04-26T02:32:34.877Z,8.10
2019-04-26T02:35:04.725Z,8.10
2019-04-26T02:37:36.143Z,8.10
2019-04-26T02:40:07.056Z,8.10
2019-04-26T02:42:41.440Z,8.20
2019-04-26T02:45:38.234Z,8.20
2019-04-26T02:48:38.379Z,8.20
2019-04-26T02:51:13.993Z,8.20
2019-04-26T02:53:56.245Z,8.20
2019-04-26T02:56:36.216Z,8.40
2019-04-26T02:59:37.792Z,8.50
2019-04-26T03:02:10.733Z,8.40
2019-04-26T03:04:42.768Z,8.50
2019-04-26T03:07:21.933Z,8.70
2019-04-26T03:09:53.223Z,8.70
2019-04-26T03:12:30.883Z,8.70
2019-04-26T03:15:20.276Z,8.70
2019-04-26T03:18:16.568Z,8.60
2019-04-26T03:20:48.716Z,8.50
2019-04-26T03:23:45.731Z,8.50
2019-04-26T03:26:23.773Z,8.50
2019-04-26T03:29:26.338Z,8.50
2019-04-26T03:32:08.424Z,8.60
2019-04-26T03:34:54.449Z,8.60
2019-04-26T03:37:57.655Z,8.80
2019-04-26T03:40:44.513Z,8.80
2019-04-26T03:43:46.805Z,8.80
2019-04-26T03:46:50.103Z,8.90
2019-04-26T03:50:06.629Z,9.00
2019-04-26T03:53:00.898Z,9.00
2019-04-26T03:56:08.711Z,8.90
2019-04-26T03:59:02.260Z,8.90
2019-04-26T04:01:38.783Z,9.00
2019-04-26T04:04:29.757Z,9.00
2019-04-26T04:07:04.941Z,9.00
2019-04-26T04:09:34.400Z,8.90
2019-04-26T04:12:12.226Z,9.00
2019-04-26T04:14:57.225Z,9.00
2019-04-26T04:17:46.206Z,9.00
2019-04-26T04:21:03.186Z,8.90
2019-04-26T04:23:48.830Z,8.90
2019-04-26T04:26:23.428Z,8.90
2019-04-26T04:29:42.931Z,8.90
2019-04-26T04:32:13.214Z,8.90
2019-04-26T04:34:48.187Z,8.80
2019-04-26T04:37:18.304Z,8.70
2019-04-26T04:39:54.446Z,8.60
2019-04-26T04:43:00.098Z,8.60
2019-04-26T04:45:53.919Z,8.50
2019-04-26T04:48:50.582Z,8.50
2019-04-26T04:51:44.181Z,8.50
2019-04-26T04:54:19.440Z,8.40
2019-04-26T04:57:17.812Z,8.40
2019-04-26T05:00:24.258Z,8.50
2019-04-26T05:03:30.102Z,8.50
2019-04-26T05:06:15.786Z,8.50
2019-04-26T05:09:07.118Z,8.40
2019-04-26T05:11:55.664Z,8.50
2019-04-26T05:14:52.506Z,8.50
2019-04-26T05:17:40.748Z,8.40
2019-04-26T05:20:45.544Z,8.40
2019-04-26T05:23:51.394Z,8.30
2019-04-26T05:26:58.352Z,8.20
2019-04-26T05:30:02.118Z,8.20
2019-04-26T05:32:54.707Z,8.40
2019-04-26T05:35:42.487Z,8.60
2019-04-26T05:38:49.374Z,8.70
2019-04-26T05:41:57.861Z,8.70
2019-04-26T05:44:46.145Z,8.80
2019-04-26T05:48:05.367Z,8.90
2019-04-26T05:51:23.408Z,9.00
2019-04-26T05:54:17.785Z,9.00
2019-04-26T05:57:26.867Z,9.10
2019-04-26T06:00:47.788Z,9.20
2019-04-26T06:03:57.215Z,9.30
2019-04-26T06:06:36.737Z,9.30
2019-04-26T06:09:40.900Z,9.50
2019-04-26T06:12:22.052Z,9.60
2019-04-26T06:15:27.858Z,9.60
2019-04-26T06:18:28.137Z,9.70
2019-04-26T06:21:05.424Z,9.60
2019-04-26T06:24:06.587Z,9.60
2019-04-26T06:27:11.014Z,9.60
2019-04-26T06:30:08.810Z,9.70
2019-04-26T06:33:06.303Z,9.70
2019-04-26T06:35:40.161Z,9.70
2019-04-26T06:39:18.006Z,9.80
2019-04-26T06:42:23.960Z,9.80
2019-04-26T06:45:43.751Z,9.90
2019-04-26T06:48:29.821Z,10.00
2019-04-26T06:51:22.492Z,10.20
2019-04-26T06:54:20.775Z,10.40
2019-04-26T06:57:55.035Z,10.60
2019-04-26T07:00:30.194Z,10.80
2019-04-26T07:03:27.593Z,11.00
2019-04-26T07:06:00.288Z,11.20
2019-04-26T07:09:00.593Z,11.40
2019-04-26T07:12:00.822Z,11.60
2019-04-26T07:15:28.336Z,11.70
2019-04-26T07:18:16.119Z,11.80
2019-04-26T07:21:05.374Z,11.80
2019-04-26T07:24:20.206Z,12.00
2019-04-26T07:27:36.657Z,12.30
2019-04-26T07:30:46.958Z,12.40
2019-04-26T07:34:07.284Z,12.80
2019-04-26T07:37:33.608Z,13.10
2019-04-26T07:40:58.492Z,13.40
2019-04-26T07:43:41.522Z,13.60
2019-04-26T07:46:41.902Z,13.60
2019-04-26T07:50:03.597Z,13.60
2019-04-26T07:52:55.538Z,13.60
2019-04-26T07:55:41.245Z,13.90
2019-04-26T07:58:46.380Z,14.10
2019-04-26T08:01:58.855Z,14.50
2019-04-26T08:04:36.542Z,15.00
2019-04-26T08:07:11.156Z,15.20
2019-04-26T08:09:47.290Z,15.20
2019-04-26T08:12:19.812Z,15.10
2019-04-26T08:15:17.834Z,15.10
2019-04-26T08:18:10.994Z,15.60
2019-04-26T08:20:49.919Z,15.80
2019-04-26T08:23:41.412Z,15.90
2019-04-26T08:26:15.547Z,15.80
2019-04-26T08:28:47.102Z,16.00
2019-04-26T08:31:24.349Z,16.40
2019-04-26T08:34:00.463Z,16.40
2019-04-26T08:36:34.270Z,16.50
2019-04-26T08:39:07.013Z,17.00
2019-04-26T08:41:39.171Z,17.10
2019-04-26T08:44:19.266Z,17.10
2019-04-26T08:47:21.014Z,17.40
2019-04-26T08:50:03.328Z,17.60
2019-04-26T08:52:37.648Z,18.00
2019-04-26T08:55:08.882Z,17.90
2019-04-26T08:57:41.130Z,18.00
2019-04-26T09:00:41.832Z,17.80
2019-04-26T09:03:24.507Z,18.10
2019-04-26T09:06:02.076Z,18.50
2019-04-26T09:08:39.192Z,18.40
2019-04-26T09:11:22.518Z,18.60
2019-04-26T09:13:44.524Z,18.90
2019-04-26T09:16:16.553Z,18.90
2019-04-26T09:18:52.750Z,18.90
2019-04-26T09:21:19.845Z,19.10
2019-04-26T09:24:21.067Z,19.70
2019-04-26T09:27:12.671Z,20.10
2019-04-26T09:30:09.788Z,20.20
2019-04-26T09:32:47.677Z,20.00
2019-04-26T09:35:17.757Z,20.30
2019-04-26T09:37:47.115Z,20.20
2019-04-26T09:40:21.604Z,19.90
2019-04-26T09:43:10.558Z,19.90
2019-04-26T09:46:00.911Z,20.40
2019-04-26T09:48:43.396Z,20.60
2019-04-26T09:51:12.458Z,20.40
2019-04-26T09:53:43.353Z,20.80
2019-04-26T09:56:12.770Z,21.10
2019-04-26T09:58:41.968Z,21.00
2019-04-26T10:01:11.824Z,20.70
2019-04-26T10:03:40.932Z,20.90
2019-04-26T10:06:10.066Z,21.40
2019-04-26T10:08:39.186Z,21.40
2019-04-26T10:11:10.932Z,21.40
2019-04-26T10:13:49.393Z,21.30
2019-04-26T10:16:42.362Z,21.30
2019-04-26T10:19:14.437Z,21.70
2019-04-26T10:21:43.885Z,22.20
2019-04-26T10:24:13.253Z,22.10
2019-04-26T10:26:43.048Z,22.40
2019-04-26T10:29:12.267Z,22.70
2019-04-26T10:31:41.386Z,22.90
2019-04-26T10:34:11.951Z,23.10
2019-04-26T10:36:41.321Z,22.70
2019-04-26T10:39:12.769Z,22.80
2019-04-26T10:41:41.877Z,22.40
2019-04-26T10:44:10.994Z,22.30
2019-04-26T10:46:40.036Z,22.00
2019-04-26T10:49:42.775Z,22.10
2019-04-26T10:52:35.900Z,22.40
2019-04-26T10:55:23.739Z,22.60
2019-04-26T10:57:57.090Z,22.90
2019-04-26T11:00:34.289Z,22.70
2019-04-26T11:03:04.528Z,22.10
2019-04-26T11:05:34.446Z,22.10
2019-04-26T11:08:04.126Z,22.50
2019-04-26T11:10:47.723Z,22.20
2019-04-26T11:13:06.485Z,21.80
2019-04-26T11:15:35.585Z,21.90
2019-04-26T11:18:05.122Z,21.50
2019-04-26T11:20:34.238Z,22.00
2019-04-26T11:23:03.626Z,22.80
2019-04-26T11:25:32.925Z,23.00
2019-04-26T11:28:02.037Z,22.50
2019-04-26T11:30:31.185Z,22.50
2019-04-26T11:33:00.301Z,22.20
2019-04-26T11:35:33.216Z,22.20
2019-04-26T11:38:00.483Z,22.40
2019-04-26T11:40:30.230Z,22.40
2019-04-26T11:42:59.451Z,22.20
2019-04-26T11:45:34.149Z,21.80
2019-04-26T11:48:03.450Z,21.60
2019-04-26T11:50:32.593Z,21.50
2019-04-26T11:53:02.206Z,22.10
2019-04-26T11:55:33.113Z,21.90
2019-04-26T11:58:05.477Z,22.40
2019-04-26T12:00:41.979Z,22.60
2019-04-26T12:03:11.161Z,22.60
2019-04-26T12:05:59.709Z,23.10
2019-04-26T12:08:56.947Z,22.60
2019-04-26T12:11:34.117Z,22.30
2019-04-26T12:13:59.395Z,21.90
2019-04-26T12:16:29.243Z,21.40
2019-04-26T12:19:03.230Z,20.60
2019-04-26T12:21:35.846Z,20.40
2019-04-26T12:24:05.390Z,20.10
2019-04-26T12:26:43.036Z,19.70
2019-04-26T12:29:10.577Z,19.80
2019-04-26T12:31:39.998Z,19.80
2019-04-26T12:34:14.103Z,20.00
2019-04-26T12:36:44.260Z,20.00
2019-04-26T12:39:13.895Z,20.60
2019-04-26T12:41:43.475Z,21.20
2019-04-26T12:44:14.666Z,21.70
2019-04-26T12:47:08.216Z,21.80
2019-04-26T12:49:39.436Z,22.10
2019-04-26T12:52:11.738Z,22.20
2019-04-26T12:54:43.032Z,22.60
2019-04-26T12:57:16.120Z,22.60
2019-04-26T12:59:44.677Z,22.70
2019-04-26T13:02:16.583Z,22.50
2019-04-26T13:04:46.372Z,23.00
2019-04-26T13:07:23.718Z,23.40
2019-04-26T13:10:11.529Z,23.30
2019-04-26T13:12:59.825Z,23.10
2019-04-26T13:16:17.134Z,22.30
2019-04-26T13:18:51.594Z,22.10
2019-04-26T13:21:22.639Z,21.50
2019-04-26T13:23:53.198Z,22.30
2019-04-26T13:26:30.282Z,23.00
2019-04-26T13:28:59.479Z,23.20
2019-04-26T13:31:31.771Z,23.20
2019-04-26T13:34:03.052Z,23.50
2019-04-26T13:36:34.399Z,23.30
2019-04-26T13:39:07.718Z,23.20
2019-04-26T13:41:38.684Z,22.90
2019-04-26T13:44:11.854Z,23.40
2019-04-26T13:47:03.791Z,23.00
2019-04-26T13:49:39.844Z,23.00
2019-04-26T13:52:09.610Z,22.60
2019-04-26T13:54:40.536Z,23.20
2019-04-26T13:57:10.182Z,23.20
2019-04-26T13:59:39.606Z,23.90
2019-04-26T14:02:11.852Z,24.10
2019-04-26T14:04:41.185Z,24.20
2019-04-26T14:07:10.593Z,24.40
2019-04-26T14:09:40.631Z,24.60
2019-04-26T14:12:18.473Z,25.10
2019-04-26T14:14:41.339Z,25.10
2019-04-26T14:17:10.503Z,25.10
2019-04-26T14:19:39.603Z,25.10
2019-04-26T14:22:09.127Z,25.70
2019-04-26T14:25:11.249Z,24.80
2019-04-26T14:27:51.948Z,24.30
2019-04-26T14:30:22.308Z,23.60
2019-04-26T14:32:53.251Z,23.30
2019-04-26T14:35:22.266Z,22.80
2019-04-26T14:37:55.935Z,22.50
2019-04-26T14:40:25.133Z,22.10
2019-04-26T14:43:06.474Z,22.10
2019-04-26T14:45:26.383Z,22.00
2019-04-26T14:47:55.813Z,22.00
2019-04-26T14:50:28.218Z,22.00
2019-04-26T14:53:02.492Z,21.90
2019-04-26T14:55:29.658Z,21.70
2019-04-26T14:57:58.765Z,21.50
2019-04-26T15:00:33.836Z,21.40
2019-04-26T15:03:08.539Z,21.30
2019-04-26T15:05:47.918Z,21.10
2019-04-26T15:08:18.354Z,21.00
2019-04-26T15:10:52.840Z,21.50
2019-04-26T15:13:21.072Z,22.20
2019-04-26T15:15:50.433Z,22.50
2019-04-26T15:18:19.754Z,22.90
2019-04-26T15:20:48.886Z,23.40
2019-04-26T15:23:19.346Z,23.70
2019-04-26T15:25:49.958Z,23.80
2019-04-26T15:28:19.107Z,24.10
2019-04-26T15:30:48.213Z,24.40
2019-04-26T15:33:17.612Z,24.40
2019-04-26T15:35:49.615Z,24.50
2019-04-26T15:38:20.281Z,24.70
2019-04-26T15:41:17.785Z,24.50
2019-04-26T15:43:53.421Z,24.40
2019-04-26T15:46:42.556Z,23.90
2019-04-26T15:49:26.121Z,23.90
2019-04-26T15:51:56.314Z,24.00
2019-04-26T15:54:25.119Z,23.80
2019-04-26T15:56:55.578Z,23.70
2019-04-26T15:59:25.460Z,23.80
2019-04-26T16:01:56.380Z,23.70
2019-04-26T16:04:25.815Z,23.20
2019-04-26T16:06:54.940Z,23.30
2019-04-26T16:09:24.656Z,23.10
2019-04-26T16:11:55.366Z,22.30
2019-04-26T16:14:30.994Z,21.80
2019-04-26T16:16:58.389Z,21.60
2019-04-26T16:19:26.881Z,22.00
2019-04-26T16:21:57.823Z,22.50
2019-04-26T16:24:27.845Z,22.50
2019-04-26T16:26:58.345Z,22.30
2019-04-26T16:29:46.844Z,22.30
2019-04-26T16:32:35.194Z,22.10
2019-04-26T16:35:05.617Z,21.80
2019-04-26T16:37:36.423Z,21.70
2019-04-26T16:40:07.866Z,21.80
2019-04-26T16:42:37.951Z,22.00
2019-04-26T16:45:08.166Z,22.10
2019-04-26T16:47:44.921Z,22.20
2019-04-26T16:50:14.941Z,21.70
2019-04-26T16:52:46.023Z,21.80
2019-04-26T16:55:20.294Z,21.90
2019-04-26T16:57:53.666Z,22.00
2019-04-26T17:00:16.206Z,21.90
2019-04-26T17:02:47.074Z,21.90
2019-04-26T17:05:20.948Z,21.70
2019-04-26T17:07:47.085Z,21.00
2019-04-26T17:10:20.161Z,20.60
2019-04-26T17:12:50.678Z,20.30
2019-04-26T17:15:21.026Z,19.90
2019-04-26T17:17:50.507Z,19.60
2019-04-26T17:20:22.870Z,19.30
2019-04-26T17:23:15.925Z,19.30
2019-04-26T17:26:09.922Z,19.30
2019-04-26T17:28:39.143Z,19.40
2019-04-26T17:31:09.610Z,19.40
2019-04-26T17:33:38.882Z,19.50
2019-04-26T17:36:11.471Z,19.40
2019-04-26T17:38:42.105Z,19.50
2019-04-26T17:41:13.595Z,19.40
2019-04-26T17:43:47.072Z,19.40
2019-04-26T17:46:14.676Z,19.30
2019-04-26T17:48:49.345Z,19.10
2019-04-26T17:51:21.172Z,19.00
2019-04-26T17:53:58.827Z,19.00
2019-04-26T17:56:25.775Z,18.90
2019-04-26T17:58:54.662Z,18.80
2019-04-26T18:01:42.231Z,18.70
2019-04-26T18:03:55.886Z,18.50
2019-04-26T18:06:29.807Z,18.30
2019-04-26T18:08:56.226Z,18.00
2019-04-26T18:11:25.402Z,17.70
2019-04-26T18:13:54.632Z,17.50
2019-04-26T18:16:29.486Z,17.40
2019-04-26T18:19:12.669Z,17.30
2019-04-26T18:22:12.437Z,17.10
2019-04-26T18:24:41.129Z,17.00
2019-04-26T18:27:10.504Z,16.80
2019-04-26T18:29:39.614Z,16.70
2019-04-26T18:32:08.943Z,16.60
2019-04-26T18:34:40.561Z,16.50
2019-04-26T18:37:13.090Z,16.30
2019-04-26T18:39:43.091Z,16.30
2019-04-26T18:42:13.995Z,16.20
2019-04-26T18:44:47.590Z,16.10
2019-04-26T18:47:26.302Z,16.00
2019-04-26T18:49:58.289Z,15.80
2019-04-26T18:52:26.227Z,15.60
2019-04-26T18:55:10.734Z,15.40
2019-04-26T18:57:40.269Z,15.20
2019-04-26T19:00:14.349Z,15.00
2019-04-26T19:02:48.360Z,14.80
2019-04-26T19:05:19.522Z,14.60
2019-04-26T19:07:50.095Z,14.40
2019-04-26T19:10:21.615Z,14.40
2019-04-26T19:12:52.535Z,14.20
2019-04-26T19:15:29.329Z,14.10
2019-04-26T19:18:08.003Z,13.90
2019-04-26T19:20:41.560Z,13.90
2019-04-26T19:23:12.186Z,13.90
2019-04-26T19:25:41.603Z,13.80
2019-04-26T19:28:12.119Z,13.90
2019-04-26T19:30:47.303Z,13.80
2019-04-26T19:33:16.848Z,13.90
2019-04-26T19:35:47.092Z,14.00
2019-04-26T19:38:15.915Z,13.90
2019-04-26T19:40:48.095Z,14.00
2019-04-26T19:43:28.303Z,14.00
2019-04-26T19:45:56.286Z,14.00
2019-04-26T19:48:37.914Z,13.90
2019-04-26T19:51:23.732Z,13.90
2019-04-26T19:54:10.346Z,13.90
2019-04-26T19:56:52.066Z,13.90
2019-04-26T19:59:21.932Z,13.70
2019-04-26T20:01:55.235Z,13.70
2019-04-26T20:04:24.801Z,13.60
2019-04-26T20:06:55.601Z,13.60
2019-04-26T20:09:26.515Z,13.50
2019-04-26T20:11:59.208Z,13.50
2019-04-26T20:14:43.572Z,13.30
2019-04-26T20:17:01.809Z,13.30
2019-04-26T20:19:36.506Z,13.30
2019-04-26T20:22:03.487Z,13.20
2019-04-26T20:24:32.870Z,13.10
2019-04-26T20:27:04.869Z,13.10
2019-04-26T20:29:34.061Z,13.00
2019-04-26T20:32:22.698Z,13.00
2019-04-26T20:35:03.513Z,13.00
2019-04-26T20:37:32.674Z,12.90
2019-04-26T20:40:18.523Z,12.90
2019-04-26T20:42:34.680Z,12.90
2019-04-26T20:45:08.467Z,13.00
2019-04-26T20:47:36.558Z,13.10
2019-04-26T20:50:06.767Z,13.00
2019-04-26T20:52:37.061Z,13.10
2019-04-26T20:55:06.193Z,13.10
2019-04-26T20:57:35.430Z,13.00
2019-04-26T21:00:07.695Z,13.00
2019-04-26T21:02:36.806Z,12.80
2019-04-26T21:05:11.329Z,12.70
2019-04-26T21:07:39.579Z,12.60
2019-04-26T21:10:14.539Z,12.60
2019-04-26T21:12:41.796Z,12.40
2019-04-26T21:15:11.604Z,12.30
2019-04-26T21:17:41.527Z,12.30
2019-04-26T21:20:11.431Z,12.20
2019-04-26T21:22:43.524Z,12.10
2019-04-26T21:25:21.467Z,12.10
2019-04-26T21:28:02.461Z,12.00
2019-04-26T21:30:47.459Z,11.90
2019-04-26T21:33:20.362Z,11.90
2019-04-26T21:36:13.692Z,11.80
2019-04-26T21:38:49.422Z,11.80
2019-04-26T21:41:28.375Z,11.70
2019-04-26T21:43:58.876Z,11.70
2019-04-26T21:46:29.060Z,11.70
2019-04-26T21:49:03.489Z,11.60
2019-04-26T21:51:33.993Z,11.50
2019-04-26T21:54:05.462Z,11.50
2019-04-26T21:56:42.792Z,11.50
2019-04-26T21:59:08.314Z,11.40
2019-04-26T22:01:37.903Z,11.40
2019-04-26T22:04:07.126Z,11.40
2019-04-26T22:06:36.487Z,11.30
2019-04-26T22:09:17.736Z,11.20
2019-04-26T22:11:49.457Z,11.30
2019-04-26T22:14:23.587Z,11.20
2019-04-26T22:17:18.194Z,11.20
2019-04-26T22:19:56.967Z,11.10
2019-04-26T22:22:46.137Z,11.00
2019-04-26T22:25:15.657Z,11.00
2019-04-26T22:27:46.244Z,10.90
2019-04-26T22:30:22.683Z,10.90
2019-04-26T22:32:54.679Z,10.80
2019-04-26T22:35:28.636Z,10.90
2019-04-26T22:37:59.198Z,10.90
2019-04-26T22:40:33.574Z,10.90
2019-04-26T22:43:20.030Z,10.90
2019-04-26T22:45:53.588Z,10.90
2019-04-26T22:48:30.352Z,10.90
2019-04-26T22:50:59.665Z,10.80
2019-04-26T22:53:29.472Z,10.80
2019-04-26T22:56:01.438Z,10.90
2019-04-26T22:58:30.463Z,10.80
2019-04-26T23:01:03.342Z,10.80
2019-04-26T23:03:31.205Z,10.80
2019-04-26T23:06:00.321Z,10.70
2019-04-26T23:08:30.820Z,10.70
2019-04-26T23:11:02.476Z,10.70
2019-04-26T23:13:50.197Z,10.70
2019-04-26T23:16:33.514Z,10.70
2019-04-26T23:19:21.872Z,10.70
2019-04-26T23:21:55.561Z,10.60
2019-04-26T23:24:23.842Z,10.60
2019-04-26T23:26:54.178Z,10.60
2019-04-26T23:29:27.366Z,10.50
2019-04-26T23:31:56.792Z,10.50
2019-04-26T23:34:29.426Z,10.50
2019-04-26T23:36:58.632Z,10.40
2019-04-26T23:39:27.793Z,10.40
2019-04-26T23:41:57.758Z,10.30
2019-04-26T23:44:26.934Z,10.20
2019-04-26T23:47:01.179Z,10.10
2019-04-26T23:49:30.463Z,10.20
2019-04-26T23:51:59.634Z,10.20
2019-04-26T23:54:32.322Z,10.10
2019-04-26T23:57:00.715Z,10.10
2019-04-26T23:59:33.700Z,10.10
